createdAt,value
2017-09-16T00:02:04.912Z,84.70
2017-09-16T00:04:32.999Z,85.10
2017-09-16T00:07:01.067Z,85.10
2017-09-16T00:09:29.172Z,84.60
2017-09-16T00:11:57.242Z,84.50
2017-09-16T00:14:26.078Z,84.20
2017-09-16T00:16:54.177Z,84.20
2017-09-16T00:19:22.247Z,83.60
2017-09-16T00:21:50.336Z,83.70
2017-09-16T00:24:18.444Z,83.20
2017-09-16T00:26:46.519Z,83.40
2017-09-16T00:29:14.595Z,83.30
2017-09-16T00:31:42.687Z,83.70
2017-09-16T00:34:10.765Z,84.30
2017-09-16T00:36:39.616Z,82.80
2017-09-16T00:39:07.720Z,81.80
2017-09-16T00:41:35.803Z,82.30
2017-09-16T00:44:03.879Z,82.40
2017-09-16T00:46:31.966Z,83.70
2017-09-16T00:49:00.043Z,85.40
2017-09-16T00:51:28.227Z,84.80
2017-09-16T00:53:56.313Z,85.30
2017-09-16T00:56:24.402Z,85.60
2017-09-16T00:58:53.463Z,86.50
2017-09-16T01:01:21.534Z,86.50
2017-09-16T01:03:49.707Z,85.90
2017-09-16T01:06:17.815Z,85.50
2017-09-16T01:08:46.678Z,83.70
2017-09-16T01:11:14.756Z,83.70
2017-09-16T01:13:42.992Z,82.90
2017-09-16T01:16:11.094Z,83.10
2017-09-16T01:18:39.189Z,83.00
2017-09-16T01:21:08.263Z,84.00
2017-09-16T01:23:36.363Z,83.40
2017-09-16T01:26:05.227Z,83.10
2017-09-16T01:28:33.403Z,83.10
2017-09-16T01:31:01.513Z,84.10
2017-09-16T01:33:30.469Z,84.60
2017-09-16T01:35:58.639Z,84.50
2017-09-16T01:38:26.739Z,84.60
2017-09-16T01:40:54.847Z,84.00
2017-09-16T01:43:23.060Z,84.20
2017-09-16T01:45:51.232Z,84.60
2017-09-16T01:48:19.507Z,85.20
2017-09-16T01:50:47.583Z,84.50
2017-09-16T01:53:15.759Z,83.70
2017-09-16T01:55:43.852Z,83.00
2017-09-16T01:58:11.932Z,82.70
2017-09-16T02:00:40.816Z,84.60
2017-09-16T02:03:08.970Z,84.60
2017-09-16T02:05:37.144Z,84.90
2017-09-16T02:08:05.240Z,84.70
2017-09-16T02:10:34.083Z,85.90
2017-09-16T02:13:02.251Z,85.80
2017-09-16T02:15:30.343Z,86.50
2017-09-16T02:17:58.445Z,87.20
2017-09-16T02:20:26.623Z,85.80
2017-09-16T02:22:54.695Z,85.20
2017-09-16T02:25:22.867Z,85.80
2017-09-16T02:27:50.963Z,85.90
2017-09-16T02:30:19.808Z,86.30
2017-09-16T02:32:47.922Z,86.20
2017-09-16T02:35:15.989Z,86.30
2017-09-16T02:37:44.067Z,86.00
2017-09-16T02:40:12.168Z,85.70
2017-09-16T02:42:40.243Z,85.70
2017-09-16T02:45:09.112Z,85.60
2017-09-16T02:47:37.191Z,84.40
2017-09-16T02:50:06.777Z,85.30
2017-09-16T02:52:34.911Z,84.10
2017-09-16T02:55:03.127Z,84.70
2017-09-16T02:57:31.203Z,85.20
2017-09-16T02:59:59.300Z,85.00
2017-09-16T03:02:27.403Z,85.20
2017-09-16T03:04:55.523Z,86.00
2017-09-16T03:07:23.697Z,88.20
2017-09-16T03:09:51.812Z,88.90
2017-09-16T03:12:20.656Z,90.00
2017-09-16T03:14:48.940Z,90.00
2017-09-16T03:17:17.450Z,90.20
2017-09-16T03:19:46.308Z,90.40
2017-09-16T03:22:14.398Z,90.10
2017-09-16T03:24:42.484Z,90.10
2017-09-16T03:27:11.691Z,90.10
2017-09-16T03:29:40.559Z,90.20
2017-09-16T04:54:06.369Z,87.70
2017-09-16T04:56:34.443Z,88.30
2017-09-16T04:59:02.548Z,87.00
2017-09-16T05:01:31.420Z,87.50
2017-09-16T05:03:59.493Z,87.10
2017-09-16T05:06:28.357Z,87.60
2017-09-16T05:08:56.463Z,86.30
2017-09-16T05:11:24.544Z,85.80
2017-09-16T05:13:53.395Z,86.50
2017-09-16T05:16:21.477Z,85.70
2017-09-16T05:18:49.556Z,84.80
2017-09-16T05:21:17.657Z,84.50
2017-09-16T05:23:46.501Z,84.30
2017-09-16T05:26:14.597Z,82.80
2017-09-16T05:28:42.693Z,82.00
2017-09-16T05:31:10.771Z,83.50
2017-09-16T05:33:38.841Z,84.60
2017-09-16T05:36:06.939Z,82.60
2017-09-16T05:38:35.019Z,83.20
2017-09-16T05:41:03.099Z,83.70
2017-09-16T05:43:31.201Z,80.10
2017-09-16T05:45:59.271Z,80.40
2017-09-16T05:48:27.360Z,80.80
2017-09-16T05:50:56.256Z,81.70
2017-09-16T05:53:24.333Z,80.10
2017-09-16T05:55:52.412Z,81.10
2017-09-16T05:58:20.507Z,80.70
2017-09-16T06:00:48.605Z,80.10
2017-09-16T06:03:16.725Z,80.70
2017-09-16T06:05:44.812Z,81.10
2017-09-16T06:08:12.887Z,81.50
2017-09-16T06:10:40.984Z,81.10
2017-09-16T06:13:09.079Z,80.90
2017-09-16T06:15:37.151Z,81.50
2017-09-16T06:18:05.256Z,79.80
2017-09-16T06:20:33.343Z,80.20
2017-09-16T06:23:01.432Z,79.30
2017-09-16T06:25:29.523Z,79.40
2017-09-16T06:27:57.632Z,79.10
2017-09-16T06:30:26.491Z,79.60
2017-09-16T06:32:54.563Z,79.30
2017-09-16T06:35:22.675Z,77.50
2017-09-16T06:37:50.755Z,76.70
2017-09-16T06:40:18.831Z,77.10
2017-09-16T06:42:46.939Z,77.70
2017-09-16T06:45:15.408Z,77.40
2017-09-16T06:47:43.487Z,76.00
2017-09-16T06:50:11.987Z,76.10
2017-09-16T06:52:40.060Z,74.70
2017-09-16T06:55:08.195Z,74.60
2017-09-16T06:57:36.276Z,75.50
2017-09-16T07:00:04.744Z,74.60
2017-09-16T07:02:32.860Z,74.70
2017-09-16T07:05:01.691Z,74.50
2017-09-16T07:07:29.771Z,73.40
2017-09-16T07:09:57.860Z,73.20
2017-09-16T07:12:25.937Z,73.70
2017-09-16T07:14:54.051Z,74.70
2017-09-16T07:17:22.153Z,75.30
2017-09-16T07:19:50.983Z,70.60
2017-09-16T07:22:19.102Z,69.80
2017-09-16T07:24:47.573Z,69.40
2017-09-16T07:27:15.719Z,68.70
2017-09-16T07:29:43.817Z,67.70
2017-09-16T07:32:11.963Z,67.50
2017-09-16T07:34:40.063Z,67.80
2017-09-16T07:37:08.167Z,65.90
2017-09-16T07:39:36.303Z,64.80
2017-09-16T07:42:04.387Z,65.60
2017-09-16T07:44:33.247Z,62.70
2017-09-16T07:47:01.354Z,62.60
2017-09-16T07:49:30.227Z,62.60
2017-09-16T07:51:58.315Z,61.00
2017-09-16T07:54:27.170Z,63.30
2017-09-16T07:56:55.283Z,62.30
2017-09-16T07:59:24.132Z,64.10
2017-09-16T08:01:52.227Z,64.60
2017-09-16T08:04:20.335Z,61.70
2017-09-16T08:06:49.218Z,62.90
2017-09-16T08:09:17.700Z,60.80
2017-09-16T08:11:46.184Z,57.80
2017-09-16T08:14:14.287Z,58.40
2017-09-16T08:16:42.396Z,60.30
2017-09-16T08:19:10.478Z,62.10
2017-09-16T08:21:38.602Z,62.30
2017-09-16T08:24:06.683Z,60.60
2017-09-16T08:26:34.763Z,61.30
2017-09-16T08:29:03.264Z,60.90
2017-09-16T08:31:31.351Z,59.40
2017-09-16T08:34:00.227Z,59.10
2017-09-16T08:36:29.289Z,59.60
2017-09-16T08:38:57.376Z,57.80
2017-09-16T08:41:25.455Z,57.50
2017-09-16T08:43:53.560Z,58.30
2017-09-16T08:46:22.411Z,57.40
2017-09-16T08:48:50.888Z,57.60
2017-09-16T08:51:18.995Z,55.30
2017-09-16T08:53:47.074Z,55.10
2017-09-16T08:56:15.923Z,54.50
2017-09-16T08:58:44.028Z,54.80
2017-09-16T09:01:12.139Z,53.20
2017-09-16T09:03:40.224Z,52.80
2017-09-16T09:06:09.439Z,51.10
2017-09-16T09:08:37.569Z,48.90
2017-09-16T09:11:06.420Z,47.80
2017-09-16T09:13:34.540Z,48.40
2017-09-16T09:16:02.640Z,49.20
2017-09-16T09:18:30.732Z,50.50
2017-09-16T09:20:58.842Z,49.00
2017-09-16T09:23:27.710Z,48.70
2017-09-16T09:25:56.224Z,44.80
2017-09-16T09:28:24.362Z,42.40
2017-09-16T09:30:52.455Z,41.10
2017-09-16T09:33:20.549Z,42.40
2017-09-16T09:35:49.120Z,41.00
2017-09-16T09:38:17.664Z,39.20
2017-09-16T09:40:46.271Z,38.60
2017-09-16T09:43:14.446Z,40.50
2017-09-16T09:45:42.621Z,39.30
2017-09-16T09:48:11.233Z,40.50
2017-09-16T09:50:39.408Z,38.90
2017-09-16T09:53:07.505Z,40.20
2017-09-16T09:55:35.670Z,39.60
2017-09-16T09:58:03.775Z,38.10
2017-09-16T10:00:33.367Z,40.30
2017-09-16T10:03:01.489Z,38.60
2017-09-16T10:05:30.767Z,37.70
2017-09-16T10:07:59.622Z,37.80
2017-09-16T10:10:27.745Z,38.00
2017-09-16T10:12:55.835Z,36.50
2017-09-16T10:15:23.920Z,35.00
2017-09-16T10:17:52.033Z,34.90
2017-09-16T10:20:20.113Z,35.10
2017-09-16T10:22:48.218Z,33.60
2017-09-16T10:25:16.295Z,32.90
2017-09-16T10:27:44.404Z,33.60
2017-09-16T10:30:12.492Z,34.60
2017-09-16T10:32:40.584Z,31.50
2017-09-16T10:35:08.679Z,31.10
2017-09-16T10:37:36.779Z,30.00
2017-09-16T10:40:04.865Z,31.80
2017-09-16T10:42:33.379Z,31.90
2017-09-16T10:45:01.848Z,31.20
2017-09-16T10:47:29.939Z,29.30
2017-09-16T10:49:58.801Z,30.60
2017-09-16T10:52:26.927Z,28.60
2017-09-16T10:54:55.792Z,28.90
2017-09-16T10:57:24.695Z,28.20
2017-09-16T10:59:53.216Z,27.40
2017-09-16T11:02:21.313Z,28.40
2017-09-16T11:04:49.392Z,28.00
2017-09-16T11:07:17.495Z,25.80
2017-09-16T11:09:46.379Z,27.10
2017-09-16T11:12:15.232Z,27.00
2017-09-16T11:14:43.318Z,25.50
2017-09-16T11:17:11.425Z,24.50
2017-09-16T11:19:39.911Z,23.70
2017-09-16T11:22:08.010Z,23.90
2017-09-16T11:24:36.120Z,24.00
2017-09-16T11:27:04.200Z,23.70
2017-09-16T11:29:32.704Z,22.90
2017-09-16T11:32:01.556Z,23.90
2017-09-16T11:34:29.667Z,23.50
2017-09-16T11:36:57.834Z,23.90
2017-09-16T11:39:25.947Z,23.00
2017-09-16T11:41:55.176Z,23.50
2017-09-16T11:44:23.259Z,21.00
2017-09-16T11:46:51.367Z,22.40
2017-09-16T11:49:19.843Z,21.70
2017-09-16T11:51:48.724Z,20.50
2017-09-16T11:54:17.584Z,20.60
2017-09-16T11:56:45.664Z,19.70
2017-09-16T11:59:13.764Z,18.80
2017-09-16T12:01:41.877Z,15.10
2017-09-16T12:04:09.951Z,16.30
2017-09-16T12:06:38.093Z,14.80
2017-09-16T12:09:06.917Z,16.70
2017-09-16T12:11:34.999Z,16.40
2017-09-16T12:14:03.104Z,15.20
2017-09-16T12:16:31.578Z,15.70
2017-09-16T12:18:59.683Z,15.30
2017-09-16T12:21:27.772Z,15.10
2017-09-16T12:23:55.847Z,15.10
2017-09-16T12:26:23.963Z,15.80
2017-09-16T12:28:52.028Z,12.80
2017-09-16T12:31:20.139Z,12.90
2017-09-16T12:33:48.233Z,12.50
2017-09-16T12:36:16.319Z,12.60
2017-09-16T12:38:44.420Z,15.40
2017-09-16T12:41:12.523Z,15.50
2017-09-16T12:43:40.629Z,13.10
2017-09-16T12:46:08.708Z,15.30
2017-09-16T12:48:36.803Z,15.60
2017-09-16T12:51:04.903Z,20.10
2017-09-16T12:53:33.772Z,21.10
2017-09-16T12:56:02.248Z,21.50
2017-09-16T12:58:30.355Z,21.80
2017-09-16T13:00:58.440Z,20.10
2017-09-16T13:03:26.558Z,18.20
2017-09-16T13:05:54.633Z,17.20
2017-09-16T13:08:22.716Z,18.10
2017-09-16T13:13:25.295Z,22.60
2017-09-16T13:15:53.408Z,23.50
2017-09-16T13:18:21.500Z,24.90
2017-09-16T13:20:49.597Z,26.80
2017-09-16T13:23:17.673Z,28.60
2017-09-16T13:25:46.539Z,31.30
2017-09-16T13:28:14.628Z,34.20
2017-09-16T13:30:42.735Z,36.20
2017-09-16T13:33:10.808Z,38.70
2017-09-16T13:35:38.911Z,41.70
2017-09-16T13:38:06.991Z,44.10
2017-09-16T13:40:35.492Z,46.30
2017-09-16T13:43:03.589Z,46.80
2017-09-16T13:45:31.691Z,48.20
2017-09-16T13:48:00.547Z,50.70
2017-09-16T13:50:29.404Z,51.70
2017-09-16T13:52:57.514Z,53.70
2017-09-16T13:55:25.591Z,54.50
2017-09-16T13:57:53.680Z,56.50
2017-09-16T14:00:21.779Z,56.00
2017-09-16T14:02:49.863Z,53.90
2017-09-16T14:05:18.728Z,51.80
2017-09-16T14:07:47.576Z,47.70
2017-09-16T14:10:16.079Z,45.80
2017-09-16T14:12:44.164Z,46.50
2017-09-16T14:15:12.252Z,48.30
2017-09-16T14:17:40.363Z,48.20
2017-09-16T14:20:08.456Z,52.30
2017-09-16T14:22:36.563Z,54.70
2017-09-16T14:25:05.408Z,54.50
2017-09-16T14:27:34.724Z,54.70
2017-09-16T14:30:03.595Z,54.20
2017-09-16T14:32:31.689Z,58.00
2017-09-16T14:37:35.143Z,55.60
2017-09-16T14:40:03.991Z,47.20
2017-09-16T14:42:32.075Z,36.20
2017-09-16T14:45:00.192Z,30.30
2017-09-16T14:47:28.275Z,27.70
2017-09-16T14:49:57.123Z,27.90
2017-09-16T14:52:25.996Z,27.60
2017-09-16T14:54:54.083Z,32.00
2017-09-16T14:57:22.176Z,34.00
2017-09-16T14:59:51.048Z,38.90
2017-09-16T15:02:19.931Z,34.80
2017-09-16T15:04:48.036Z,33.10
2017-09-16T15:07:16.119Z,27.60
2017-09-16T15:09:44.224Z,26.50
2017-09-16T15:12:12.309Z,28.50
2017-09-16T15:14:40.496Z,31.70
2017-09-16T15:17:08.664Z,31.50
2017-09-16T15:19:36.764Z,35.60
2017-09-16T15:22:05.633Z,39.30
2017-09-16T15:24:33.711Z,39.20
2017-09-16T15:27:01.818Z,41.60
2017-09-16T15:29:30.759Z,43.20
2017-09-16T15:31:58.841Z,43.50
2017-09-16T15:34:27.147Z,41.10
2017-09-16T15:36:55.984Z,42.00
2017-09-16T15:39:24.096Z,44.90
2017-09-16T15:41:52.573Z,45.50
2017-09-16T15:44:20.653Z,47.90
2017-09-16T15:46:48.796Z,50.10
2017-09-16T15:49:17.079Z,51.80
2017-09-16T15:51:45.584Z,54.00
2017-09-16T15:54:13.721Z,52.00
2017-09-16T15:56:42.011Z,51.70
2017-09-16T15:59:10.861Z,50.60
2017-09-16T16:01:38.967Z,49.40
2017-09-16T16:04:07.153Z,50.40
2017-09-16T16:06:35.324Z,50.20
2017-09-16T16:09:03.425Z,51.00
2017-09-16T16:11:32.275Z,53.90
2017-09-16T16:14:00.387Z,52.50
2017-09-16T16:16:29.245Z,53.30
2017-09-16T16:18:57.332Z,52.30
2017-09-16T16:21:25.707Z,53.70
2017-09-16T16:23:53.792Z,53.30
2017-09-16T16:26:22.268Z,54.30
2017-09-16T16:28:50.375Z,54.10
2017-09-16T16:31:18.603Z,54.40
2017-09-16T16:33:46.853Z,55.30
2017-09-16T16:36:15.057Z,55.60
2017-09-16T16:38:44.592Z,56.30
2017-09-16T16:41:12.675Z,57.00
2017-09-16T16:43:41.630Z,57.90
2017-09-16T16:46:09.800Z,57.30
2017-09-16T16:48:37.883Z,56.10
2017-09-16T16:51:06.144Z,55.40
2017-09-16T16:53:34.652Z,58.90
2017-09-16T16:56:02.755Z,58.10
2017-09-16T16:58:31.622Z,61.10
2017-09-16T17:00:59.835Z,58.30
2017-09-16T17:03:28.788Z,60.00
2017-09-16T17:05:56.872Z,61.00
2017-09-16T17:08:25.755Z,62.00
2017-09-16T17:10:53.924Z,65.30
2017-09-16T17:13:22.004Z,65.60
2017-09-16T17:15:50.120Z,65.70
2017-09-16T17:18:18.207Z,66.20
2017-09-16T17:20:46.687Z,66.50
2017-09-16T17:23:14.783Z,64.70
2017-09-16T17:25:42.868Z,64.50
2017-09-16T17:28:10.963Z,62.20
2017-09-16T17:30:39.064Z,60.00
2017-09-16T17:33:07.142Z,61.60
2017-09-16T17:35:36.017Z,61.50
2017-09-16T17:38:04.096Z,59.70
2017-09-16T17:40:32.577Z,56.70
2017-09-16T17:43:00.679Z,56.00
2017-09-16T17:45:28.776Z,56.50
2017-09-16T17:47:56.859Z,56.80
2017-09-16T17:50:25.357Z,59.50
2017-09-16T17:52:53.472Z,61.90
2017-09-16T17:55:21.558Z,62.80
2017-09-16T17:57:49.651Z,63.60
2017-09-16T18:00:17.750Z,67.10
2017-09-16T18:02:45.830Z,65.80
2017-09-16T18:05:13.940Z,64.20
2017-09-16T18:07:42.046Z,63.80
2017-09-16T18:10:10.131Z,64.10
2017-09-16T18:12:39.360Z,65.70
2017-09-16T18:15:08.226Z,66.50
2017-09-16T18:17:36.309Z,66.90
2017-09-16T18:20:04.423Z,66.60
2017-09-16T18:22:32.504Z,67.30
2017-09-16T18:25:00.585Z,66.90
2017-09-16T18:27:28.688Z,66.50
2017-09-16T18:29:56.780Z,66.90
2017-09-16T18:32:25.659Z,68.60
2017-09-16T18:34:53.748Z,65.40
2017-09-16T18:37:21.828Z,66.90
2017-09-16T18:39:50.696Z,68.00
2017-09-16T18:42:19.179Z,65.70
2017-09-16T18:44:47.289Z,65.30
2017-09-16T18:47:15.370Z,65.00
2017-09-16T18:49:43.462Z,64.30
2017-09-16T18:52:11.976Z,63.90
2017-09-16T18:54:40.064Z,65.80
2017-09-16T18:57:08.921Z,66.60
2017-09-16T18:59:37.025Z,66.80
2017-09-16T19:02:05.906Z,66.30
2017-09-16T19:04:34.000Z,66.30
2017-09-16T19:07:02.865Z,67.90
2017-09-16T19:09:31.001Z,64.60
2017-09-16T19:11:59.063Z,62.90
2017-09-16T19:14:27.171Z,66.20
2017-09-16T19:16:55.276Z,64.10
2017-09-16T19:19:23.375Z,67.30
2017-09-16T19:21:51.498Z,65.20
2017-09-16T19:24:19.587Z,67.60
2017-09-16T19:26:47.687Z,68.40
2017-09-16T19:29:15.787Z,68.10
2017-09-16T19:31:43.879Z,68.60
2017-09-16T19:34:12.031Z,68.60
2017-09-16T19:36:40.123Z,69.70
2017-09-16T19:39:08.607Z,69.30
2017-09-16T19:41:36.736Z,70.50
2017-09-16T19:44:04.817Z,70.70
2017-09-16T19:46:32.896Z,71.70
2017-09-16T19:49:01.400Z,71.60
2017-09-16T19:51:29.485Z,71.70
2017-09-16T19:53:57.605Z,71.80
2017-09-16T19:56:26.427Z,71.60
2017-09-16T19:58:54.539Z,71.60
2017-09-16T20:01:23.415Z,73.10
2017-09-16T20:03:51.518Z,73.00
2017-09-16T20:06:20.379Z,73.60
2017-09-16T20:08:48.484Z,73.60
2017-09-16T20:11:16.573Z,74.80
2017-09-16T20:13:44.699Z,75.30
2017-09-16T20:16:12.812Z,75.90
2017-09-16T20:18:40.924Z,75.60
2017-09-16T20:21:09.019Z,74.90
2017-09-16T20:23:37.122Z,76.20
2017-09-16T20:26:05.229Z,77.00
2017-09-16T20:28:33.343Z,75.40
2017-09-16T20:31:01.456Z,75.80
2017-09-16T20:33:29.551Z,76.70
2017-09-16T20:35:57.683Z,76.70
2017-09-16T20:38:25.764Z,76.80
2017-09-16T20:40:53.843Z,75.80
2017-09-16T20:43:23.454Z,78.00
2017-09-16T20:45:51.540Z,77.90
2017-09-16T20:48:19.660Z,77.80
2017-09-16T20:50:47.768Z,75.90
2017-09-16T20:55:45.286Z,75.90
2017-09-16T20:58:13.368Z,76.40
2017-09-16T21:00:41.628Z,77.20
2017-09-16T21:03:09.717Z,77.80
2017-09-16T21:05:38.602Z,78.60
2017-09-16T21:08:06.705Z,80.10
2017-09-16T21:10:35.572Z,82.00
2017-09-16T21:13:03.677Z,80.20
2017-09-16T21:15:31.775Z,79.30
2017-09-16T21:18:00.264Z,79.20
2017-09-16T21:20:28.356Z,78.80
2017-09-16T21:22:57.968Z,79.80
2017-09-16T21:25:26.087Z,79.70
2017-09-16T21:27:54.174Z,80.50
2017-09-16T21:30:22.264Z,80.00
2017-09-16T21:32:50.360Z,79.30
2017-09-16T21:35:18.443Z,79.40
2017-09-16T21:37:46.553Z,78.30
2017-09-16T21:40:14.649Z,78.30
2017-09-16T21:42:42.745Z,78.50
2017-09-16T21:45:10.841Z,78.70
2017-09-16T21:47:38.970Z,79.10
2017-09-16T21:50:07.884Z,79.60
2017-09-16T21:52:35.972Z,80.60
2017-09-16T21:55:05.567Z,81.90
2017-09-16T21:57:34.231Z,81.60
2017-09-16T22:00:02.364Z,80.90
2017-09-16T22:02:30.492Z,80.20
2017-09-16T22:04:59.339Z,80.50
2017-09-16T22:07:27.451Z,81.30
2017-09-16T22:09:55.632Z,81.30
2017-09-16T22:12:25.224Z,82.50
2017-09-16T22:14:53.314Z,82.40
2017-09-16T22:17:21.408Z,82.10
2017-09-16T22:19:49.911Z,82.70
2017-09-16T22:22:17.987Z,82.30
2017-09-16T22:24:46.870Z,83.10
2017-09-16T22:27:15.723Z,84.20
2017-09-16T22:29:45.299Z,84.20
2017-09-16T22:32:13.450Z,83.20
2017-09-16T22:34:41.541Z,83.10
2017-09-16T22:37:09.628Z,83.00
2017-09-16T22:39:38.849Z,82.90
2017-09-16T22:42:06.923Z,83.80
2017-09-16T22:44:36.513Z,84.60
2017-09-16T22:47:04.602Z,83.90
2017-09-16T22:49:32.697Z,83.60
2017-09-16T22:52:01.565Z,84.20
2017-09-16T22:54:29.648Z,83.70
2017-09-16T22:56:57.724Z,83.90
2017-09-16T22:59:26.687Z,83.90
2017-09-16T23:01:54.793Z,82.80
2017-09-16T23:04:23.654Z,82.20
2017-09-16T23:06:52.163Z,81.70
2017-09-16T23:09:20.349Z,82.20
2017-09-16T23:11:49.188Z,82.60
2017-09-16T23:14:17.380Z,82.60
2017-09-16T23:16:45.464Z,83.30
2017-09-16T23:19:13.544Z,84.50
2017-09-16T23:21:42.043Z,84.80
2017-09-16T23:24:10.123Z,85.10
2017-09-16T23:26:38.203Z,84.50
2017-09-16T23:29:06.334Z,83.70
2017-09-16T23:31:34.424Z,83.90
2017-09-16T23:34:03.277Z,84.80
2017-09-16T23:36:31.368Z,83.00
2017-09-16T23:38:59.455Z,83.60
2017-09-16T23:41:27.599Z,83.90
2017-09-16T23:43:55.675Z,82.80
2017-09-16T23:46:23.753Z,82.70
2017-09-16T23:48:51.874Z,83.70
2017-09-16T23:51:19.943Z,84.00
2017-09-16T23:53:48.023Z,83.40
2017-09-16T23:56:16.130Z,84.00
2017-09-16T23:58:44.207Z,84.70
